Time;durP1;ratioP1;P1;durP2;ratioP2;P2;SDS_P1;SDS_P2;PMS_P1;PMS_P2;Temp;Humidity;BMP_temperature;BMP_pressure;BME280_temperature;BME280_humidity;BME280_pressure;Samples;Min_cycle;Max_cycle;Signal;HPM_P1;HPM_P2
2022/10/20 00:01:29;;;;;;;10.88;7.85;;;;;;;14.08;60.93;97048.50;6156393;23;20096;-79
2022/10/20 00:03:58;;;;;;;15.73;8.23;;;;;;;14.00;60.84;97047.69;6156392;23;20018;-78
2022/10/20 00:06:33;;;;;;;11.80;8.40;;;;;;;13.93;61.02;97054.69;6156494;23;20022;-78
2022/10/20 00:09:04;;;;;;;9.82;8.00;;;;;;;13.91;61.04;97051.44;6156236;23;20017;-79
2022/10/20 00:11:34;;;;;;;9.95;8.10;;;;;;;13.87;61.08;97052.84;6156621;23;20028;-79
2022/10/20 00:14:05;;;;;;;13.65;7.90;;;;;;;13.78;61.37;97048.75;6156576;23;20028;-78
2022/10/20 00:16:37;;;;;;;13.23;8.60;;;;;;;13.71;61.90;97043.44;6157120;23;20402;-79
2022/10/20 00:19:08;;;;;;;9.75;7.55;;;;;;;13.69;61.94;97044.66;6156221;23;20028;-79
2022/10/20 00:21:38;;;;;;;10.10;6.95;;;;;;;13.72;62.27;97049.50;6156015;23;20021;-78
2022/10/20 00:24:07;;;;;;;10.73;7.35;;;;;;;13.73;62.14;97040.63;6156206;23;20055;-79
2022/10/20 00:26:37;;;;;;;11.57;8.73;;;;;;;13.72;61.98;97033.75;6156074;23;20455;-78
2022/10/20 00:29:06;;;;;;;9.13;7.15;;;;;;;13.70;62.15;97041.00;6155953;23;20018;-79
2022/10/20 00:31:35;;;;;;;11.48;8.32;;;;;;;13.67;61.68;97044.03;6155992;23;20017;-79
2022/10/20 00:34:04;;;;;;;14.52;8.85;;;;;;;13.63;61.48;97046.19;6155957;23;20089;-78
2022/10/20 00:36:34;;;;;;;13.15;8.63;;;;;;;13.58;61.36;97046.78;6156026;23;20046;-78
2022/10/20 00:39:06;;;;;;;9.73;7.60;;;;;;;13.54;61.57;97042.91;6155992;23;20524;-79
2022/10/20 00:41:35;;;;;;;10.15;8.43;;;;;;;13.47;61.62;97028.13;6156197;23;20032;-79
2022/10/20 00:44:42;;;;;;;10.50;8.27;;;;;;;13.41;61.68;97036.75;6155942;23;20013;-79
2022/10/20 00:47:16;;;;;;;9.90;7.30;;;;;;;13.38;61.88;97040.53;6155655;23;20032;-79
2022/10/20 00:49:46;;;;;;;12.93;8.32;;;;;;;13.37;61.73;97029.25;6155976;23;20021;-79
2022/10/20 00:52:17;;;;;;;11.18;7.13;;;;;;;13.35;61.98;97028.63;6155841;23;20013;-79
2022/10/20 00:54:46;;;;;;;13.23;8.93;;;;;;;13.32;61.89;97017.72;6155867;23;20018;-78
2022/10/20 00:57:16;;;;;;;9.85;7.78;;;;;;;13.33;62.09;97019.34;6155644;23;20407;-79
2022/10/20 00:59:46;;;;;;;9.90;8.20;;;;;;;13.32;61.95;97012.50;6155340;23;20357;-80
2022/10/20 01:02:16;;;;;;;11.35;8.90;;;;;;;13.28;61.93;97008.59;6166326;23;20029;-79
2022/10/20 01:04:45;;;;;;;11.85;8.63;;;;;;;13.21;62.15;97003.31;6170074;23;20053;-79
2022/10/20 01:07:14;;;;;;;12.68;8.82;;;;;;;13.18;62.29;97001.88;6166180;23;20096;-78
2022/10/20 01:09:46;;;;;;;12.57;8.18;;;;;;;13.18;62.36;97001.03;6157538;23;20125;-79
2022/10/20 01:12:27;;;;;;;11.73;8.52;;;;;;;13.12;62.52;96994.75;6156903;23;20030;-79
2022/10/20 01:15:07;;;;;;;12.82;9.68;;;;;;;13.10;62.89;96994.13;6156263;23;20018;-79
2022/10/20 01:18:01;;;;;;;12.63;8.95;;;;;;;13.10;63.01;96993.34;6155868;23;20382;-79
2022/10/20 01:21:08;;;;;;;10.38;8.35;;;;;;;13.11;63.15;96984.47;6155949;23;20017;-79
2022/10/20 01:24:02;;;;;;;10.55;8.38;;;;;;;13.10;63.23;96985.47;6155383;23;20041;-79
2022/10/20 01:27:03;;;;;;;11.15;8.75;;;;;;;13.08;63.45;96982.22;6155808;23;20081;-79
2022/10/20 01:29:44;;;;;;;11.18;8.55;;;;;;;13.05;63.87;96991.25;6155838;23;20017;-79
2022/10/20 01:32:27;;;;;;;12.00;9.23;;;;;;;13.04;63.94;96973.94;6156247;23;20068;-79
2022/10/20 01:35:04;;;;;;;11.98;9.38;;;;;;;13.05;64.04;96966.88;6130303;23;20013;-80
2022/10/20 01:37:43;;;;;;;13.27;9.35;;;;;;;13.03;64.26;96961.00;6155747;23;20041;-79
2022/10/20 01:40:27;;;;;;;13.95;10.23;;;;;;;13.00;64.75;96951.72;6156035;23;20017;-80
2022/10/20 01:43:05;;;;;;;13.35;9.90;;;;;;;13.01;64.92;96942.06;6155954;23;20021;-79
2022/10/20 01:45:41;;;;;;;15.38;10.27;;;;;;;12.97;65.24;96941.66;6155597;23;20022;-80
2022/10/20 01:48:15;;;;;;;14.80;10.80;;;;;;;12.93;65.75;96941.19;6155810;23;20022;-79
2022/10/20 01:50:47;;;;;;;16.55;11.88;;;;;;;12.91;65.99;96930.09;6155945;23;20026;-79
2022/10/20 01:53:17;;;;;;;17.60;10.90;;;;;;;12.94;65.87;96937.59;6156360;23;20018;-79
2022/10/20 01:56:02;;;;;;;17.40;12.35;;;;;;;12.95;66.11;96931.34;6154750;23;20465;-79
2022/10/20 01:59:07;;;;;;;20.83;12.85;;;;;;;12.96;67.01;96929.53;6155680;23;20044;-80
2022/10/20 02:02:00;;;;;;;18.08;12.70;;;;;;;12.96;66.94;96924.28;6155694;23;20033;-79
2022/10/20 02:04:35;;;;;;;21.02;14.07;;;;;;;12.90;67.20;96928.50;6155734;23;20032;-80
2022/10/20 02:07:14;;;;;;;28.42;14.27;;;;;;;12.88;67.76;96916.56;6162882;23;20028;-79
2022/10/20 02:09:48;;;;;;;23.25;13.90;;;;;;;12.92;67.87;96923.06;6173017;23;20021;-79
2022/10/20 02:12:23;;;;;;;25.02;14.85;;;;;;;12.94;67.99;96926.28;6162654;23;20017;-79
2022/10/20 02:14:55;;;;;;;25.50;15.18;;;;;;;12.89;68.04;96915.59;6156036;23;20088;-80
2022/10/20 02:17:38;;;;;;;29.05;16.27;;;;;;;12.85;68.94;96916.97;6155562;23;20028;-79
2022/10/20 02:20:10;;;;;;;25.65;16.77;;;;;;;12.82;68.32;96917.34;6155742;23;20075;-79
2022/10/20 02:22:41;;;;;;;24.77;16.30;;;;;;;12.81;68.40;96926.19;6155547;23;20476;-79
2022/10/20 02:25:22;;;;;;;25.70;16.25;;;;;;;12.78;68.94;96922.94;6155905;23;20014;-79
2022/10/20 02:27:54;;;;;;;24.60;15.95;;;;;;;12.74;68.71;96924.31;6155745;23;20030;-79
2022/10/20 02:30:33;;;;;;;26.43;17.00;;;;;;;12.69;69.11;96924.06;6155900;23;20045;-79
2022/10/20 02:33:08;;;;;;;23.60;15.30;;;;;;;12.66;69.53;96913.97;6155543;23;20018;-80
2022/10/20 02:35:42;;;;;;;24.58;15.75;;;;;;;12.62;69.43;96915.34;6156663;23;20101;-79
2022/10/20 02:38:16;;;;;;;26.27;16.48;;;;;;;12.62;69.92;96923.19;6157433;23;20097;-79
2022/10/20 02:41:00;;;;;;;25.70;16.60;;;;;;;12.58;70.16;96924.56;6157552;23;20029;-79
2022/10/20 02:43:39;;;;;;;21.90;15.65;;;;;;;12.55;70.29;96922.31;6157431;23;20026;-79
2022/10/20 02:46:09;;;;;;;22.05;15.45;;;;;;;12.54;70.38;96916.25;6157777;23;20013;-79
2022/10/20 02:48:42;;;;;;;25.35;16.00;;;;;;;12.52;70.75;96910.41;6157448;23;20026;-79
2022/10/20 02:51:17;;;;;;;26.65;15.55;;;;;;;12.51;70.42;96915.84;6157648;23;20029;-79
2022/10/20 02:53:55;;;;;;;19.30;13.70;;;;;;;12.51;71.08;96913.22;6158008;23;20021;-78
2022/10/20 02:56:25;;;;;;;22.05;14.50;;;;;;;12.51;70.96;96921.09;6157337;23;20044;-80
2022/10/20 02:59:01;;;;;;;22.00;14.38;;;;;;;12.48;70.85;96922.22;6157288;23;20014;-80
2022/10/20 03:01:33;;;;;;;21.25;14.23;;;;;;;12.48;70.98;96918.81;6157858;23;20025;-79
2022/10/20 03:04:07;;;;;;;19.05;13.90;;;;;;;12.48;71.32;96921.44;6157320;23;20080;-79
2022/10/20 03:06:38;;;;;;;17.63;12.50;;;;;;;12.47;71.42;96909.34;6156455;23;20453;-79
2022/10/20 03:09:08;;;;;;;19.35;14.20;;;;;;;12.48;71.40;96913.59;6156674;23;20022;-79
2022/10/20 03:11:40;;;;;;;19.85;14.90;;;;;;;12.47;71.27;96917.22;6157545;23;20017;-80
2022/10/20 03:14:11;;;;;;;20.80;14.02;;;;;;;12.45;71.54;96912.16;6157386;23;20048;-79
2022/10/20 03:16:43;;;;;;;18.73;15.05;;;;;;;12.42;71.59;96901.25;6157099;23;20018;-79
2022/10/20 03:19:35;;;;;;;19.25;13.77;;;;;;;12.36;72.19;96908.03;6157069;23;20026;-79
2022/10/20 03:22:08;;;;;;;19.05;13.80;;;;;;;12.33;71.82;96914.47;6157521;23;20033;-79
2022/10/20 03:24:37;;;;;;;18.50;12.70;;;;;;;12.32;72.00;96923.28;6156851;23;20524;-79
2022/10/20 03:27:07;;;;;;;21.92;12.45;;;;;;;12.33;72.03;96913.63;6156772;23;20021;-79
2022/10/20 03:29:36;;;;;;;14.95;12.50;;;;;;;12.30;72.35;96912.19;6157344;23;20026;-79
2022/10/20 03:32:06;;;;;;;15.88;12.10;;;;;;;12.31;72.26;96903.38;6156774;23;20060;-79
2022/10/20 03:34:37;;;;;;;14.80;11.52;;;;;;;12.33;72.48;96908.38;6157020;23;20476;-79
2022/10/20 03:37:06;;;;;;;17.10;11.80;;;;;;;12.35;72.30;96909.03;6156529;23;20029;-79
2022/10/20 03:39:35;;;;;;;15.73;11.82;;;;;;;12.35;72.23;96902.00;6156837;23;20047;-79
2022/10/20 03:42:05;;;;;;;16.15;12.02;;;;;;;12.32;72.18;96899.75;6156695;23;20360;-79
2022/10/20 03:47:19;;;;;;;14.98;11.43;;;;;;;12.29;72.69;96902.75;6156805;23;20092;-79
2022/10/20 03:49:51;;;;;;;16.73;12.35;;;;;;;12.33;72.87;96898.75;6156946;23;20101;-79
2022/10/20 03:52:24;;;;;;;16.30;12.35;;;;;;;12.35;72.61;96902.00;6156996;23;20021;-79
2022/10/20 03:55:09;;;;;;;15.27;12.25;;;;;;;12.36;72.84;96894.97;6157091;23;20021;-79
2022/10/20 03:57:39;;;;;;;17.88;12.68;;;;;;;12.33;72.43;96904.00;6156740;23;20448;-79
2022/10/20 04:00:18;;;;;;;15.23;12.27;;;;;;;12.31;72.87;96900.75;6156752;23;20028;-79
2022/10/20 04:02:48;;;;;;;18.55;13.32;;;;;;;12.29;72.71;96912.41;6156554;23;20026;-79
2022/10/20 04:05:21;;;;;;;18.15;13.35;;;;;;;12.28;73.08;96918.59;6156712;23;20022;-79
2022/10/20 04:07:50;;;;;;;17.92;13.38;;;;;;;12.26;73.07;96913.56;6156667;23;20020;-80
2022/10/20 04:10:25;;;;;;;17.98;13.43;;;;;;;12.25;73.11;96911.94;6156438;23;20021;-80
2022/10/20 04:13:01;;;;;;;18.50;14.13;;;;;;;12.23;73.24;96916.56;6156885;23;20025;-80
2022/10/20 04:15:52;;;;;;;19.83;14.80;;;;;;;12.19;73.70;96907.44;6156685;23;20037;-79
2022/10/20 04:18:35;;;;;;;20.05;14.57;;;;;;;12.15;73.20;96914.03;6154845;23;20030;-79
2022/10/20 04:21:07;;;;;;;17.42;13.07;;;;;;;12.13;73.70;96916.84;6156374;23;20401;-79
2022/10/20 04:23:55;;;;;;;18.75;13.27;;;;;;;12.15;74.18;96916.66;6156598;23;20080;-80
2022/10/20 04:26:27;;;;;;;19.40;13.50;;;;;;;12.14;73.60;96909.81;6156472;23;20076;-79
2022/10/20 04:32:23;;;;;;;17.33;13.48;;;;;;;12.15;73.65;96900.97;6153922;23;20080;-79
2022/10/20 04:34:53;;;;;;;16.95;12.88;;;;;;;12.15;73.77;96908.81;6156388;23;20033;-78
2022/10/20 04:37:25;;;;;;;17.17;13.07;;;;;;;12.11;74.10;96891.84;6156238;23;20025;-80
2022/10/20 04:39:56;;;;;;;18.50;13.82;;;;;;;12.11;74.11;96900.53;6156432;23;20106;-79
2022/10/20 04:42:25;;;;;;;17.75;13.57;;;;;;;12.14;74.25;96899.34;6157047;23;20024;-79
2022/10/20 04:44:55;;;;;;;16.95;12.60;;;;;;;12.15;74.09;96885.28;6167522;23;20433;-80
2022/10/20 04:47:24;;;;;;;20.85;13.45;;;;;;;12.17;74.08;96878.06;6178067;23;20077;-81
2022/10/20 04:49:51;;;;;;;18.50;13.93;;;;;;;12.14;74.24;96866.16;6157554;23;20571;-79
2022/10/20 04:52:20;;;;;;;17.23;12.23;;;;;;;12.15;74.16;96853.88;6173327;23;20011;-80
2022/10/20 04:54:52;;;;;;;15.85;12.90;;;;;;;12.10;74.48;96837.94;6184071;23;20009;-80
2022/10/20 04:57:20;;;;;;;14.15;11.57;;;;;;;12.06;74.78;96844.53;6135111;23;21100;-75
2022/10/20 05:03:06;;;;;;;15.23;12.05;;;;;;;12.14;74.52;96844.44;6164717;23;20020;-82
2022/10/20 05:05:52;;;;;;;15.18;11.65;;;;;;;12.14;74.35;96842.63;6182216;23;20005;-82
2022/10/20 05:29:28;;;;;;;16.45;11.75;;;;;;;12.11;75.71;96826.47;6205676;23;20064;-81
2022/10/20 05:41:12;;;;;;;14.33;11.80;;;;;;;12.14;75.89;96821.69;6204866;23;20040;-82
2022/10/20 05:53:22;;;;;;;13.68;11.57;;;;;;;12.22;75.72;96830.41;6184073;23;20040;-79
2022/10/20 05:56:09;;;;;;;11.73;10.07;;;;;;;12.21;74.97;96824.38;6183789;23;20065;-81
2022/10/20 05:58:54;;;;;;;12.23;10.15;;;;;;;12.22;75.70;96835.66;6183784;23;20045;-79
2022/10/20 06:01:38;;;;;;;13.75;11.18;;;;;;;12.23;75.47;96835.47;6183721;23;20018;-79
2022/10/20 06:04:39;;;;;;;13.50;11.50;;;;;;;12.24;75.50;96836.28;6183700;23;20036;-79
2022/10/20 06:10:05;;;;;;;13.15;10.50;;;;;;;12.27;75.57;96820.22;6219947;23;20064;-82
2022/10/20 06:13:26;;;;;;;16.20;10.65;;;;;;;12.27;75.77;96831.50;6168751;23;20008;-81
2022/10/20 06:24:58;;;;;;;13.50;11.00;;;;;;;12.23;75.45;96827.63;6200290;23;20077;-78
2022/10/20 06:43:10;;;;;;;15.00;10.98;;;;;;;12.21;75.66;96827.00;6164358;23;20065;-82
2022/10/20 07:35:43;;;;;;;12.60;10.00;;;;;;;12.28;75.37;96827.06;5157005;27;20406;-81
2022/10/20 07:38:25;;;;;;;12.20;9.85;;;;;;;12.29;74.95;96819.03;5157461;27;20046;-82
2022/10/20 08:00:14;;;;;;;11.32;9.60;;;;;;;12.40;75.02;96833.44;5189521;22;20057;-79
2022/10/20 08:03:08;;;;;;;12.70;10.00;;;;;;;12.45;74.72;96832.84;5098749;28;20028;-80
2022/10/20 08:06:27;;;;;;;13.95;10.80;;;;;;;12.51;74.58;96832.91;5124288;22;20067;-81
2022/10/20 08:09:08;;;;;;;11.27;9.18;;;;;;;12.57;74.23;96826.09;5095233;28;20037;-81
2022/10/20 08:14:46;;;;;;;11.88;8.93;;;;;;;12.72;73.86;96833.88;5113663;28;20036;-82
2022/10/20 08:44:36;;;;;;;8.75;7.85;;;;;;;13.28;71.96;96786.75;5069341;22;20116;-80
2022/10/20 08:50:03;;;;;;;10.43;8.13;;;;;;;13.28;71.62;96801.63;5145332;22;20066;-82
2022/10/20 08:52:52;;;;;;;10.25;8.60;;;;;;;13.27;71.65;96805.25;5100754;28;20116;-81
2022/10/20 08:55:34;;;;;;;10.27;8.00;;;;;;;13.33;71.48;96804.50;5101182;28;20033;-82
2022/10/20 08:58:31;;;;;;;10.65;9.02;;;;;;;13.42;71.43;96816.44;5266909;22;20068;-83
2022/10/20 09:01:56;;;;;;;11.55;8.27;;;;;;;13.51;70.87;96799.56;5100908;28;20028;-82
2022/10/20 09:05:04;;;;;;;8.65;7.75;;;;;;;13.58;70.61;96797.78;5099053;28;20056;-80
2022/10/20 09:40:34;;;;;;;8.68;7.68;;;;;;;13.65;70.57;96791.75;5206138;23;20045;-82
2022/10/20 09:43:37;;;;;;;9.43;7.93;;;;;;;13.75;70.37;96802.66;5045067;28;20049;-79
2022/10/20 09:49:39;;;;;;;10.65;8.13;;;;;;;13.90;70.14;96805.94;5060169;28;20041;-81
2022/10/20 09:52:48;;;;;;;8.00;6.85;;;;;;;14.31;69.77;96801.59;5059903;28;20064;-80
2022/10/20 09:55:42;;;;;;;7.82;6.65;;;;;;;14.95;67.90;96800.19;5059931;28;20044;-80
2022/10/20 09:58:49;;;;;;;9.23;7.03;;;;;;;15.17;66.20;96790.25;5048945;28;20063;-79
2022/10/20 10:02:00;;;;;;;8.95;7.57;;;;;;;15.08;66.06;96794.13;5058745;28;20036;-80
2022/10/20 10:08:11;;;;;;;11.95;7.65;;;;;;;15.12;66.38;96805.84;5059237;28;20037;-81
2022/10/20 11:10:54;;;;;;;9.00;7.72;;;;;;;16.26;62.49;96778.03;3076971;22;20048;-81
2022/10/20 11:13:29;;;;;;;10.15;8.05;;;;;;;16.38;61.89;96778.19;5059875;28;20025;-82
2022/10/20 11:16:25;;;;;;;10.82;8.35;;;;;;;16.28;62.11;96776.00;5059897;28;20053;-81
2022/10/20 11:19:38;;;;;;;8.48;7.57;;;;;;;16.13;62.31;96780.75;5039697;28;20030;-81
2022/10/20 11:22:26;;;;;;;8.27;7.22;;;;;;;16.04;62.50;96798.63;4980457;29;20043;-82
2022/10/20 11:25:04;;;;;;;9.93;7.18;;;;;;;16.06;62.39;96801.84;4980566;29;20050;-82
2022/10/20 11:27:38;;;;;;;8.52;7.28;;;;;;;16.17;62.10;96790.66;5008047;28;20033;-81
2022/10/20 11:30:19;;;;;;;7.22;6.53;;;;;;;16.60;61.73;96800.47;5038342;28;20030;-81
2022/10/20 14:53:17;;;;;;;16.73;13.00;;;;;;;14.66;69.76;96628.97;5369624;23;20117;-81
2022/10/20 14:55:56;;;;;;;19.48;13.70;;;;;;;14.63;69.93;96637.25;5020938;28;20042;-81
2022/10/20 14:58:40;;;;;;;17.33;12.65;;;;;;;14.60;70.33;96641.06;5001250;28;20057;-81
2022/10/20 15:01:28;;;;;;;18.40;14.20;;;;;;;14.59;70.50;96636.06;5001096;28;20031;-81
2022/10/20 15:04:05;;;;;;;18.73;13.75;;;;;;;14.53;70.66;96634.22;5001149;28;20035;-81
2022/10/20 15:06:37;;;;;;;23.00;15.63;;;;;;;14.49;70.57;96635.63;5001033;28;20031;-81
2022/10/20 15:09:18;;;;;;;27.73;16.00;;;;;;;14.48;71.23;96642.72;5000646;28;21172;-81
2022/10/20 15:11:49;;;;;;;23.77;15.05;;;;;;;14.48;70.64;96641.91;4999294;28;20086;-81
2022/10/20 15:14:21;;;;;;;22.27;15.65;;;;;;;14.47;70.96;96640.28;4999701;28;20039;-81
2022/10/20 15:16:53;;;;;;;26.58;15.82;;;;;;;14.43;70.96;96635.44;4999353;28;20062;-81
2022/10/20 15:51:51;;;;;;;17.87;13.73;;;;;;;14.09;72.68;96638.31;6019427;23;20057;31
2022/10/20 15:54:26;;;;;;;17.70;13.75;;;;;;;14.09;73.53;96640.94;4996870;28;20069;-80
2022/10/20 15:59:36;;;;;;;19.85;14.48;;;;;;;14.09;73.44;96626.00;5268196;23;20069;-80
2022/10/20 16:02:03;;;;;;;20.50;14.00;;;;;;;14.11;73.84;96631.84;4993153;28;20447;-79
2022/10/20 16:04:31;;;;;;;21.40;15.15;;;;;;;14.12;74.10;96616.91;4993832;28;20051;-80
2022/10/20 16:06:58;;;;;;;18.52;14.43;;;;;;;14.09;73.91;96604.22;4994014;28;20135;-80
2022/10/20 16:09:37;;;;;;;19.27;14.15;;;;;;;14.08;74.18;96607.84;4997460;28;20059;-81
2022/10/20 16:25:52;;;;;;;20.02;14.55;;;;;;;14.06;74.32;96639.53;5704969;23;20070;-83
2022/10/20 16:28:22;;;;;;;21.55;14.68;;;;;;;14.09;74.34;96635.69;4999283;28;20035;-81
2022/10/20 16:31:01;;;;;;;21.02;16.33;;;;;;;14.08;74.60;96619.16;5006306;28;20038;-80
2022/10/20 16:33:31;;;;;;;20.88;16.27;;;;;;;14.07;74.35;96604.41;5003328;28;20034;-81
2022/10/20 16:36:03;;;;;;;18.95;14.57;;;;;;;14.06;74.42;96608.06;5021678;28;20046;-80
2022/10/20 16:38:32;;;;;;;20.75;16.25;;;;;;;14.07;74.41;96601.00;5009565;28;20090;-81
2022/10/20 16:41:17;;;;;;;22.55;15.50;;;;;;;14.07;74.76;96612.28;5017839;28;20038;-80
2022/10/20 16:43:47;;;;;;;21.48;16.38;;;;;;;14.07;74.46;96621.97;5001819;28;20226;-79
2022/10/20 16:48:50;;;;;;;22.10;15.75;;;;;;;14.05;74.55;96618.75;5051152;23;20042;-80
2022/10/20 16:51:19;;;;;;;20.77;16.48;;;;;;;14.01;74.88;96629.66;5022636;28;20038;-80
2022/10/20 16:53:48;;;;;;;23.15;16.52;;;;;;;14.00;74.83;96633.28;5006397;28;20035;-80
2022/10/20 16:56:18;;;;;;;24.20;18.23;;;;;;;13.97;75.04;96638.94;5003845;28;20053;-79
2022/10/20 16:58:48;;;;;;;23.33;16.17;;;;;;;13.96;75.19;96632.06;4983988;28;20038;-80
2022/10/20 17:01:18;;;;;;;20.45;15.85;;;;;;;13.96;75.09;96618.16;4980208;28;20126;-79
2022/10/20 17:03:48;;;;;;;22.85;17.02;;;;;;;13.95;75.02;96609.47;4974861;28;20114;-79
2022/10/20 17:06:18;;;;;;;23.00;16.05;;;;;;;13.93;75.14;96601.00;4971536;28;20428;-79
2022/10/20 17:08:46;;;;;;;20.80;15.70;;;;;;;13.91;74.92;96594.34;4982226;28;20047;-79
2022/10/20 17:11:16;;;;;;;21.05;16.13;;;;;;;13.89;75.41;96602.41;4997850;28;20034;-79
2022/10/20 17:13:46;;;;;;;21.48;15.68;;;;;;;13.90;75.26;96611.09;4981748;28;20082;-79
